sensor_id;sensor_type;location;lat;lon;timestamp;P1;durP1;ratioP1;P2;durP2;ratioP2
32812;SDS011;19162;48.254;11.454;2022-11-12T00:00:28;19.88;;;7.68;;
32812;SDS011;19162;48.254;11.454;2022-11-12T00:03:28;27.53;;;8.13;;
32812;SDS011;19162;48.254;11.454;2022-11-12T00:06:28;14.27;;;7.43;;
32812;SDS011;19162;48.254;11.454;2022-11-12T00:09:28;38.15;;;9.23;;
32812;SDS011;19162;48.254;11.454;2022-11-12T00:12:29;28.98;;;9.90;;
32812;SDS011;19162;48.254;11.454;2022-11-12T00:15:29;33.77;;;9.63;;
32812;SDS011;19162;48.254;11.454;2022-11-12T00:18:29;29.77;;;9.45;;
32812;SDS011;19162;48.254;11.454;2022-11-12T00:21:29;19.13;;;10.07;;
32812;SDS011;19162;48.254;11.454;2022-11-12T00:24:29;34.67;;;9.80;;
32812;SDS011;19162;48.254;11.454;2022-11-12T00:27:33;22.30;;;8.77;;
32812;SDS011;19162;48.254;11.454;2022-11-12T00:30:33;17.80;;;9.13;;
32812;SDS011;19162;48.254;11.454;2022-11-12T00:33:37;14.33;;;8.87;;
32812;SDS011;19162;48.254;11.454;2022-11-12T00:39:38;24.83;;;9.00;;
32812;SDS011;19162;48.254;11.454;2022-11-12T00:42:38;21.27;;;9.13;;
32812;SDS011;19162;48.254;11.454;2022-11-12T00:45:38;25.48;;;9.15;;
32812;SDS011;19162;48.254;11.454;2022-11-12T00:48:39;28.85;;;9.52;;
32812;SDS011;19162;48.254;11.454;2022-11-12T00:51:39;23.13;;;8.52;;
32812;SDS011;19162;48.254;11.454;2022-11-12T00:54:39;25.55;;;7.28;;
32812;SDS011;19162;48.254;11.454;2022-11-12T00:57:39;12.55;;;7.45;;
32812;SDS011;19162;48.254;11.454;2022-11-12T01:00:39;14.68;;;8.07;;
32812;SDS011;19162;48.254;11.454;2022-11-12T01:03:40;34.53;;;9.23;;
32812;SDS011;19162;48.254;11.454;2022-11-12T01:06:40;42.50;;;9.32;;
32812;SDS011;19162;48.254;11.454;2022-11-12T01:09:41;33.80;;;9.13;;
32812;SDS011;19162;48.254;11.454;2022-11-12T01:12:41;37.78;;;8.25;;
32812;SDS011;19162;48.254;11.454;2022-11-12T01:15:41;34.92;;;7.25;;
32812;SDS011;19162;48.254;11.454;2022-11-12T01:18:42;24.92;;;6.55;;
32812;SDS011;19162;48.254;11.454;2022-11-12T01:21:43;37.92;;;6.50;;
32812;SDS011;19162;48.254;11.454;2022-11-12T01:24:43;35.45;;;5.65;;
32812;SDS011;19162;48.254;11.454;2022-11-12T01:27:43;26.45;;;5.95;;
32812;SDS011;19162;48.254;11.454;2022-11-12T01:30:43;15.82;;;5.43;;
32812;SDS011;19162;48.254;11.454;2022-11-12T01:33:44;23.38;;;5.75;;
32812;SDS011;19162;48.254;11.454;2022-11-12T01:36:45;20.77;;;6.68;;
32812;SDS011;19162;48.254;11.454;2022-11-12T01:39:45;24.63;;;6.40;;
32812;SDS011;19162;48.254;11.454;2022-11-12T01:42:50;18.17;;;5.75;;
32812;SDS011;19162;48.254;11.454;2022-11-12T01:45:50;27.73;;;6.45;;
32812;SDS011;19162;48.254;11.454;2022-11-12T01:48:55;32.42;;;7.03;;
32812;SDS011;19162;48.254;11.454;2022-11-12T01:51:57;16.75;;;7.22;;
32812;SDS011;19162;48.254;11.454;2022-11-12T01:55:06;17.35;;;6.70;;
32812;SDS011;19162;48.254;11.454;2022-11-12T01:58:15;24.42;;;7.93;;
32812;SDS011;19162;48.254;11.454;2022-11-12T02:01:16;15.55;;;7.38;;
32812;SDS011;19162;48.254;11.454;2022-11-12T02:04:16;14.30;;;6.72;;
32812;SDS011;19162;48.254;11.454;2022-11-12T02:07:17;10.73;;;6.70;;
32812;SDS011;19162;48.254;11.454;2022-11-12T02:10:18;12.52;;;6.43;;
32812;SDS011;19162;48.254;11.454;2022-11-12T02:13:18;17.60;;;7.30;;
32812;SDS011;19162;48.254;11.454;2022-11-12T02:16:39;15.50;;;6.65;;
32812;SDS011;19162;48.254;11.454;2022-11-12T02:19:39;16.38;;;7.35;;
32812;SDS011;19162;48.254;11.454;2022-11-12T02:22:40;17.45;;;6.20;;
32812;SDS011;19162;48.254;11.454;2022-11-12T02:25:40;24.27;;;6.90;;
32812;SDS011;19162;48.254;11.454;2022-11-12T02:28:40;20.77;;;6.63;;
32812;SDS011;19162;48.254;11.454;2022-11-12T02:31:40;12.83;;;7.50;;
32812;SDS011;19162;48.254;11.454;2022-11-12T02:34:40;18.92;;;7.68;;
32812;SDS011;19162;48.254;11.454;2022-11-12T02:37:40;16.42;;;8.48;;
32812;SDS011;19162;48.254;11.454;2022-11-12T02:40:41;17.00;;;8.40;;
32812;SDS011;19162;48.254;11.454;2022-11-12T02:43:41;16.08;;;8.57;;
32812;SDS011;19162;48.254;11.454;2022-11-12T02:46:41;13.67;;;8.33;;
32812;SDS011;19162;48.254;11.454;2022-11-12T02:49:41;15.60;;;8.70;;
32812;SDS011;19162;48.254;11.454;2022-11-12T02:52:43;15.20;;;7.60;;
32812;SDS011;19162;48.254;11.454;2022-11-12T02:55:43;15.70;;;8.05;;
32812;SDS011;19162;48.254;11.454;2022-11-12T02:58:44;10.17;;;8.67;;
32812;SDS011;19162;48.254;11.454;2022-11-12T03:01:44;12.60;;;7.88;;
32812;SDS011;19162;48.254;11.454;2022-11-12T03:04:44;10.15;;;8.48;;
32812;SDS011;19162;48.254;11.454;2022-11-12T03:07:44;17.52;;;8.20;;
32812;SDS011;19162;48.254;11.454;2022-11-12T03:10:44;18.30;;;8.70;;
32812;SDS011;19162;48.254;11.454;2022-11-12T03:13:44;21.67;;;8.60;;
32812;SDS011;19162;48.254;11.454;2022-11-12T03:16:45;18.80;;;9.00;;
32812;SDS011;19162;48.254;11.454;2022-11-12T03:19:45;14.95;;;9.70;;
32812;SDS011;19162;48.254;11.454;2022-11-12T03:22:53;15.57;;;7.90;;
32812;SDS011;19162;48.254;11.454;2022-11-12T03:25:54;57.83;;;12.20;;
32812;SDS011;19162;48.254;11.454;2022-11-12T03:28:54;37.60;;;11.17;;
32812;SDS011;19162;48.254;11.454;2022-11-12T03:31:54;36.03;;;9.68;;
32812;SDS011;19162;48.254;11.454;2022-11-12T03:34:54;50.90;;;10.30;;
32812;SDS011;19162;48.254;11.454;2022-11-12T03:37:54;28.52;;;7.88;;
32812;SDS011;19162;48.254;11.454;2022-11-12T03:40:55;31.33;;;8.40;;
32812;SDS011;19162;48.254;11.454;2022-11-12T03:43:55;41.28;;;9.73;;
32812;SDS011;19162;48.254;11.454;2022-11-12T03:46:55;28.65;;;8.73;;
32812;SDS011;19162;48.254;11.454;2022-11-12T03:49:55;35.27;;;8.83;;
32812;SDS011;19162;48.254;11.454;2022-11-12T03:52:56;76.90;;;10.80;;
32812;SDS011;19162;48.254;11.454;2022-11-12T03:55:57;72.65;;;11.27;;
32812;SDS011;19162;48.254;11.454;2022-11-12T03:58:57;39.55;;;8.93;;
32812;SDS011;19162;48.254;11.454;2022-11-12T04:01:57;28.27;;;8.10;;
32812;SDS011;19162;48.254;11.454;2022-11-12T04:04:57;34.05;;;9.02;;
32812;SDS011;19162;48.254;11.454;2022-11-12T04:08:17;19.90;;;7.78;;
32812;SDS011;19162;48.254;11.454;2022-11-12T04:11:36;29.92;;;8.35;;
32812;SDS011;19162;48.254;11.454;2022-11-12T04:14:36;17.48;;;7.38;;
32812;SDS011;19162;48.254;11.454;2022-11-12T04:17:36;14.20;;;7.15;;
32812;SDS011;19162;48.254;11.454;2022-11-12T04:20:55;16.50;;;7.53;;
32812;SDS011;19162;48.254;11.454;2022-11-12T04:24:14;18.98;;;7.53;;
32812;SDS011;19162;48.254;11.454;2022-11-12T04:27:34;33.15;;;9.23;;
32812;SDS011;19162;48.254;11.454;2022-11-12T04:30:34;29.07;;;6.87;;
32812;SDS011;19162;48.254;11.454;2022-11-12T04:33:35;8.57;;;5.35;;
32812;SDS011;19162;48.254;11.454;2022-11-12T04:36:35;23.27;;;6.68;;
32812;SDS011;19162;48.254;11.454;2022-11-12T04:39:35;20.85;;;6.22;;
32812;SDS011;19162;48.254;11.454;2022-11-12T04:42:35;17.73;;;5.67;;
32812;SDS011;19162;48.254;11.454;2022-11-12T04:46:08;40.05;;;7.82;;
32812;SDS011;19162;48.254;11.454;2022-11-12T04:49:08;38.40;;;6.45;;
32812;SDS011;19162;48.254;11.454;2022-11-12T04:52:08;16.85;;;6.30;;
32812;SDS011;19162;48.254;11.454;2022-11-12T04:55:09;34.53;;;7.57;;
32812;SDS011;19162;48.254;11.454;2022-11-12T04:58:10;38.35;;;7.40;;
32812;SDS011;19162;48.254;11.454;2022-11-12T05:01:11;67.88;;;8.90;;
32812;SDS011;19162;48.254;11.454;2022-11-12T05:04:11;25.80;;;8.53;;
32812;SDS011;19162;48.254;11.454;2022-11-12T05:07:11;50.15;;;8.15;;
32812;SDS011;19162;48.254;11.454;2022-11-12T05:10:11;22.70;;;5.90;;
32812;SDS011;19162;48.254;11.454;2022-11-12T05:13:11;22.50;;;6.10;;
32812;SDS011;19162;48.254;11.454;2022-11-12T05:16:12;21.40;;;5.67;;
32812;SDS011;19162;48.254;11.454;2022-11-12T05:19:12;28.97;;;6.50;;
32812;SDS011;19162;48.254;11.454;2022-11-12T05:22:12;23.43;;;7.60;;
32812;SDS011;19162;48.254;11.454;2022-11-12T05:25:12;43.20;;;7.38;;
32812;SDS011;19162;48.254;11.454;2022-11-12T05:28:12;26.67;;;6.23;;
32812;SDS011;19162;48.254;11.454;2022-11-12T05:31:13;33.53;;;6.77;;
32812;SDS011;19162;48.254;11.454;2022-11-12T05:34:13;27.17;;;6.07;;
32812;SDS011;19162;48.254;11.454;2022-11-12T05:37:13;29.70;;;6.75;;
32812;SDS011;19162;48.254;11.454;2022-11-12T05:40:14;29.48;;;6.50;;
32812;SDS011;19162;48.254;11.454;2022-11-12T05:43:14;29.83;;;6.45;;
32812;SDS011;19162;48.254;11.454;2022-11-12T05:46:14;21.52;;;6.45;;
32812;SDS011;19162;48.254;11.454;2022-11-12T05:49:14;17.93;;;6.20;;
32812;SDS011;19162;48.254;11.454;2022-11-12T05:52:15;18.42;;;5.82;;
32812;SDS011;19162;48.254;11.454;2022-11-12T05:55:15;16.03;;;5.23;;
32812;SDS011;19162;48.254;11.454;2022-11-12T05:58:15;19.33;;;5.40;;
32812;SDS011;19162;48.254;11.454;2022-11-12T06:01:15;12.00;;;5.37;;
32812;SDS011;19162;48.254;11.454;2022-11-12T06:04:16;4.90;;;4.50;;
32812;SDS011;19162;48.254;11.454;2022-11-12T06:07:16;10.80;;;5.75;;
32812;SDS011;19162;48.254;11.454;2022-11-12T06:10:16;12.93;;;6.50;;
32812;SDS011;19162;48.254;11.454;2022-11-12T06:13:17;11.83;;;5.63;;
32812;SDS011;19162;48.254;11.454;2022-11-12T06:16:17;13.02;;;5.80;;
32812;SDS011;19162;48.254;11.454;2022-11-12T06:19:17;9.75;;;5.35;;
32812;SDS011;19162;48.254;11.454;2022-11-12T06:22:18;15.07;;;6.18;;
32812;SDS011;19162;48.254;11.454;2022-11-12T06:25:18;11.77;;;5.03;;
32812;SDS011;19162;48.254;11.454;2022-11-12T06:28:18;24.60;;;6.63;;
32812;SDS011;19162;48.254;11.454;2022-11-12T06:31:18;9.18;;;5.63;;
32812;SDS011;19162;48.254;11.454;2022-11-12T06:34:19;10.90;;;5.70;;
32812;SDS011;19162;48.254;11.454;2022-11-12T06:37:19;13.88;;;6.00;;
32812;SDS011;19162;48.254;11.454;2022-11-12T06:40:21;37.35;;;8.10;;
32812;SDS011;19162;48.254;11.454;2022-11-12T06:43:21;44.08;;;7.70;;
32812;SDS011;19162;48.254;11.454;2022-11-12T06:46:21;10.52;;;5.00;;
32812;SDS011;19162;48.254;11.454;2022-11-12T06:49:21;8.65;;;5.43;;
32812;SDS011;19162;48.254;11.454;2022-11-12T06:52:21;28.55;;;7.18;;
32812;SDS011;19162;48.254;11.454;2022-11-12T06:55:22;22.83;;;7.38;;
32812;SDS011;19162;48.254;11.454;2022-11-12T06:58:22;50.38;;;9.05;;
32812;SDS011;19162;48.254;11.454;2022-11-12T07:01:22;22.03;;;8.17;;
32812;SDS011;19162;48.254;11.454;2022-11-12T07:04:23;37.33;;;9.77;;
32812;SDS011;19162;48.254;11.454;2022-11-12T07:07:23;14.82;;;9.00;;
32812;SDS011;19162;48.254;11.454;2022-11-12T07:10:23;32.38;;;9.73;;
32812;SDS011;19162;48.254;11.454;2022-11-12T07:13:23;14.70;;;8.80;;
32812;SDS011;19162;48.254;11.454;2022-11-12T07:16:24;27.70;;;9.82;;
32812;SDS011;19162;48.254;11.454;2022-11-12T07:19:24;9.93;;;7.00;;
32812;SDS011;19162;48.254;11.454;2022-11-12T07:22:24;20.17;;;9.50;;
32812;SDS011;19162;48.254;11.454;2022-11-12T07:25:24;28.15;;;8.98;;
32812;SDS011;19162;48.254;11.454;2022-11-12T07:28:24;26.10;;;8.48;;
32812;SDS011;19162;48.254;11.454;2022-11-12T07:31:25;21.90;;;10.23;;
32812;SDS011;19162;48.254;11.454;2022-11-12T07:34:25;16.10;;;9.30;;
32812;SDS011;19162;48.254;11.454;2022-11-12T07:37:25;16.27;;;6.57;;
32812;SDS011;19162;48.254;11.454;2022-11-12T07:40:25;12.48;;;6.78;;
32812;SDS011;19162;48.254;11.454;2022-11-12T07:43:26;15.50;;;6.65;;
32812;SDS011;19162;48.254;11.454;2022-11-12T07:46:26;15.23;;;8.15;;
32812;SDS011;19162;48.254;11.454;2022-11-12T07:49:27;14.32;;;7.90;;
32812;SDS011;19162;48.254;11.454;2022-11-12T07:52:27;15.03;;;6.90;;
32812;SDS011;19162;48.254;11.454;2022-11-12T07:55:27;15.90;;;6.53;;
32812;SDS011;19162;48.254;11.454;2022-11-12T07:58:29;14.90;;;6.50;;
32812;SDS011;19162;48.254;11.454;2022-11-12T08:04:29;25.42;;;8.80;;
32812;SDS011;19162;48.254;11.454;2022-11-12T08:07:29;28.50;;;8.88;;
32812;SDS011;19162;48.254;11.454;2022-11-12T08:10:30;28.95;;;9.40;;
32812;SDS011;19162;48.254;11.454;2022-11-12T08:13:30;42.15;;;8.60;;
32812;SDS011;19162;48.254;11.454;2022-11-12T08:16:30;61.50;;;8.65;;
32812;SDS011;19162;48.254;11.454;2022-11-12T08:19:30;32.23;;;12.43;;
32812;SDS011;19162;48.254;11.454;2022-11-12T08:22:31;35.65;;;8.32;;
32812;SDS011;19162;48.254;11.454;2022-11-12T08:25:31;26.53;;;7.63;;
32812;SDS011;19162;48.254;11.454;2022-11-12T08:28:32;23.80;;;8.07;;
32812;SDS011;19162;48.254;11.454;2022-11-12T08:31:32;14.68;;;7.50;;
32812;SDS011;19162;48.254;11.454;2022-11-12T08:34:32;31.27;;;8.90;;
32812;SDS011;19162;48.254;11.454;2022-11-12T08:37:32;27.20;;;7.90;;
32812;SDS011;19162;48.254;11.454;2022-11-12T08:40:33;19.03;;;8.47;;
32812;SDS011;19162;48.254;11.454;2022-11-12T08:43:33;39.35;;;8.50;;
32812;SDS011;19162;48.254;11.454;2022-11-12T08:46:33;35.22;;;8.75;;
32812;SDS011;19162;48.254;11.454;2022-11-12T08:49:33;43.73;;;10.17;;
32812;SDS011;19162;48.254;11.454;2022-11-12T08:52:33;9.30;;;7.45;;
32812;SDS011;19162;48.254;11.454;2022-11-12T08:55:34;29.67;;;9.23;;
32812;SDS011;19162;48.254;11.454;2022-11-12T08:58:34;14.07;;;9.05;;
32812;SDS011;19162;48.254;11.454;2022-11-12T09:01:34;12.02;;;7.43;;
32812;SDS011;19162;48.254;11.454;2022-11-12T09:04:35;16.83;;;8.83;;
32812;SDS011;19162;48.254;11.454;2022-11-12T09:07:35;12.03;;;7.13;;
32812;SDS011;19162;48.254;11.454;2022-11-12T09:10:35;17.03;;;7.50;;
32812;SDS011;19162;48.254;11.454;2022-11-12T09:13:36;15.43;;;7.53;;
32812;SDS011;19162;48.254;11.454;2022-11-12T09:16:36;10.15;;;7.13;;
32812;SDS011;19162;48.254;11.454;2022-11-12T09:19:36;14.13;;;7.40;;
32812;SDS011;19162;48.254;11.454;2022-11-12T09:22:37;21.10;;;8.43;;
32812;SDS011;19162;48.254;11.454;2022-11-12T09:25:37;16.85;;;8.07;;
32812;SDS011;19162;48.254;11.454;2022-11-12T09:28:38;14.70;;;8.27;;
32812;SDS011;19162;48.254;11.454;2022-11-12T09:31:38;25.25;;;7.82;;
32812;SDS011;19162;48.254;11.454;2022-11-12T09:34:38;12.00;;;7.70;;
32812;SDS011;19162;48.254;11.454;2022-11-12T09:37:38;11.90;;;7.77;;
32812;SDS011;19162;48.254;11.454;2022-11-12T09:43:55;8.55;;;7.82;;
32812;SDS011;19162;48.254;11.454;2022-11-12T09:47:00;15.05;;;9.50;;
32812;SDS011;19162;48.254;11.454;2022-11-12T09:53:04;47.53;;;11.90;;
32812;SDS011;19162;48.254;11.454;2022-11-12T09:56:08;18.30;;;9.80;;
32812;SDS011;19162;48.254;11.454;2022-11-12T09:59:13;11.70;;;9.68;;
32812;SDS011;19162;48.254;11.454;2022-11-12T10:02:34;10.18;;;8.30;;
32812;SDS011;19162;48.254;11.454;2022-11-12T10:11:49;18.20;;;8.75;;
32812;SDS011;19162;48.254;11.454;2022-11-12T10:15:30;19.33;;;9.60;;
32812;SDS011;19162;48.254;11.454;2022-11-12T10:18:51;28.25;;;9.25;;
32812;SDS011;19162;48.254;11.454;2022-11-12T10:21:56;17.23;;;8.07;;
32812;SDS011;19162;48.254;11.454;2022-11-12T10:24:58;30.52;;;9.05;;
32812;SDS011;19162;48.254;11.454;2022-11-12T10:31:25;8.93;;;8.18;;
32812;SDS011;19162;48.254;11.454;2022-11-12T10:34:25;8.90;;;8.07;;
32812;SDS011;19162;48.254;11.454;2022-11-12T10:37:38;13.57;;;8.30;;
32812;SDS011;19162;48.254;11.454;2022-11-12T10:40:40;9.27;;;8.45;;
32812;SDS011;19162;48.254;11.454;2022-11-12T10:43:43;9.40;;;8.52;;
32812;SDS011;19162;48.254;11.454;2022-11-12T10:46:51;8.68;;;7.82;;
32812;SDS011;19162;48.254;11.454;2022-11-12T10:50:20;10.07;;;9.13;;
32812;SDS011;19162;48.254;11.454;2022-11-12T10:53:31;10.50;;;8.52;;
32812;SDS011;19162;48.254;11.454;2022-11-12T10:56:31;10.20;;;9.20;;
32812;SDS011;19162;48.254;11.454;2022-11-12T10:59:32;9.77;;;8.77;;
32812;SDS011;19162;48.254;11.454;2022-11-12T11:02:32;9.40;;;8.53;;
32812;SDS011;19162;48.254;11.454;2022-11-12T11:05:53;10.65;;;9.10;;
32812;SDS011;19162;48.254;11.454;2022-11-12T11:09:07;10.68;;;8.73;;
32812;SDS011;19162;48.254;11.454;2022-11-12T11:12:20;10.07;;;9.38;;
32812;SDS011;19162;48.254;11.454;2022-11-12T11:15:22;10.05;;;9.23;;
32812;SDS011;19162;48.254;11.454;2022-11-12T11:18:22;11.40;;;10.38;;
32812;SDS011;19162;48.254;11.454;2022-11-12T11:24:50;10.48;;;9.63;;
32812;SDS011;19162;48.254;11.454;2022-11-12T11:27:57;10.43;;;9.52;;
32812;SDS011;19162;48.254;11.454;2022-11-12T11:31:01;11.40;;;10.27;;
32812;SDS011;19162;48.254;11.454;2022-11-12T11:50:36;9.23;;;8.53;;
32812;SDS011;19162;48.254;11.454;2022-11-12T11:56:58;10.18;;;9.38;;
32812;SDS011;19162;48.254;11.454;2022-11-12T12:03:22;9.18;;;8.57;;
32812;SDS011;19162;48.254;11.454;2022-11-12T12:06:25;8.70;;;8.10;;
32812;SDS011;19162;48.254;11.454;2022-11-12T12:09:37;10.50;;;9.60;;
32812;SDS011;19162;48.254;11.454;2022-11-12T12:24:50;12.03;;;11.10;;
32812;SDS011;19162;48.254;11.454;2022-11-12T12:27:58;11.18;;;10.38;;
32812;SDS011;19162;48.254;11.454;2022-11-12T12:30:59;11.55;;;10.75;;
32812;SDS011;19162;48.254;11.454;2022-11-12T12:37:04;13.80;;;12.70;;
32812;SDS011;19162;48.254;11.454;2022-11-12T12:40:16;14.10;;;12.90;;
32812;SDS011;19162;48.254;11.454;2022-11-12T12:43:31;11.25;;;10.45;;
32812;SDS011;19162;48.254;11.454;2022-11-12T12:46:34;11.98;;;11.13;;
32812;SDS011;19162;48.254;11.454;2022-11-12T12:49:36;20.05;;;18.17;;
32812;SDS011;19162;48.254;11.454;2022-11-12T12:56:00;12.07;;;11.30;;
32812;SDS011;19162;48.254;11.454;2022-11-12T12:59:01;11.80;;;10.95;;
32812;SDS011;19162;48.254;11.454;2022-11-12T13:02:02;16.60;;;15.00;;
32812;SDS011;19162;48.254;11.454;2022-11-12T13:05:03;11.60;;;10.63;;
32812;SDS011;19162;48.254;11.454;2022-11-12T13:59:46;13.60;;;12.57;;
32812;SDS011;19162;48.254;11.454;2022-11-12T14:02:59;13.05;;;12.20;;
32812;SDS011;19162;48.254;11.454;2022-11-12T14:06:06;13.88;;;12.98;;
32812;SDS011;19162;48.254;11.454;2022-11-12T14:22:17;15.90;;;14.70;;
32812;SDS011;19162;48.254;11.454;2022-11-12T14:32:56;14.65;;;13.57;;
32812;SDS011;19162;48.254;11.454;2022-11-12T14:36:06;15.50;;;14.45;;
32812;SDS011;19162;48.254;11.454;2022-11-12T14:39:12;14.25;;;13.15;;
32812;SDS011;19162;48.254;11.454;2022-11-12T14:42:24;17.15;;;15.88;;
32812;SDS011;19162;48.254;11.454;2022-11-12T14:45:34;16.33;;;14.52;;
32812;SDS011;19162;48.254;11.454;2022-11-12T14:48:43;16.00;;;14.50;;
32812;SDS011;19162;48.254;11.454;2022-11-12T14:52:27;15.43;;;14.35;;
32812;SDS011;19162;48.254;11.454;2022-11-12T14:55:40;44.95;;;38.33;;
32812;SDS011;19162;48.254;11.454;2022-11-12T14:59:02;40.63;;;27.48;;
32812;SDS011;19162;48.254;11.454;2022-11-12T15:02:10;69.07;;;18.95;;
32812;SDS011;19162;48.254;11.454;2022-11-12T15:08:54;18.40;;;16.83;;
32812;SDS011;19162;48.254;11.454;2022-11-12T15:15:30;21.10;;;18.55;;
32812;SDS011;19162;48.254;11.454;2022-11-12T15:18:35;50.75;;;19.15;;
32812;SDS011;19162;48.254;11.454;2022-11-12T15:21:36;39.20;;;15.20;;
32812;SDS011;19162;48.254;11.454;2022-11-12T15:24:46;43.42;;;15.52;;
32812;SDS011;19162;48.254;11.454;2022-11-12T15:41:34;57.90;;;15.73;;
32812;SDS011;19162;48.254;11.454;2022-11-12T15:44:35;51.10;;;15.30;;
32812;SDS011;19162;48.254;11.454;2022-11-12T15:47:35;73.30;;;15.52;;
32812;SDS011;19162;48.254;11.454;2022-11-12T15:50:35;40.40;;;14.50;;
32812;SDS011;19162;48.254;11.454;2022-11-12T15:53:38;47.07;;;16.67;;
32812;SDS011;19162;48.254;11.454;2022-11-12T15:56:38;90.23;;;17.53;;
32812;SDS011;19162;48.254;11.454;2022-11-12T15:59:38;77.25;;;18.08;;
32812;SDS011;19162;48.254;11.454;2022-11-12T16:02:39;8.75;;;8.05;;
32812;SDS011;19162;48.254;11.454;2022-11-12T16:05:39;62.10;;;18.13;;
32812;SDS011;19162;48.254;11.454;2022-11-12T16:08:40;63.05;;;18.88;;
32812;SDS011;19162;48.254;11.454;2022-11-12T16:11:40;65.85;;;18.67;;
32812;SDS011;19162;48.254;11.454;2022-11-12T16:14:40;130.60;;;23.60;;
32812;SDS011;19162;48.254;11.454;2022-11-12T16:17:40;105.32;;;24.60;;
32812;SDS011;19162;48.254;11.454;2022-11-12T16:20:41;97.40;;;23.63;;
32812;SDS011;19162;48.254;11.454;2022-11-12T16:23:41;109.50;;;28.10;;
32812;SDS011;19162;48.254;11.454;2022-11-12T16:26:41;99.22;;;27.52;;
32812;SDS011;19162;48.254;11.454;2022-11-12T16:29:41;85.60;;;26.33;;
32812;SDS011;19162;48.254;11.454;2022-11-12T16:32:42;76.47;;;26.40;;
32812;SDS011;19162;48.254;11.454;2022-11-12T16:35:42;87.70;;;29.92;;
32812;SDS011;19162;48.254;11.454;2022-11-12T16:38:43;97.47;;;28.80;;
32812;SDS011;19162;48.254;11.454;2022-11-12T16:41:43;70.95;;;28.60;;
32812;SDS011;19162;48.254;11.454;2022-11-12T16:44:44;82.27;;;30.07;;
32812;SDS011;19162;48.254;11.454;2022-11-12T16:47:48;85.47;;;31.67;;
32812;SDS011;19162;48.254;11.454;2022-11-12T16:50:48;52.30;;;28.20;;
32812;SDS011;19162;48.254;11.454;2022-11-12T16:53:48;101.47;;;32.80;;
32812;SDS011;19162;48.254;11.454;2022-11-12T16:56:48;90.23;;;33.23;;
32812;SDS011;19162;48.254;11.454;2022-11-12T16:59:49;97.87;;;33.17;;
32812;SDS011;19162;48.254;11.454;2022-11-12T17:02:49;81.20;;;30.33;;
32812;SDS011;19162;48.254;11.454;2022-11-12T17:05:50;88.22;;;28.90;;
32812;SDS011;19162;48.254;11.454;2022-11-12T17:08:53;109.90;;;32.47;;
32812;SDS011;19162;48.254;11.454;2022-11-12T17:11:53;86.80;;;32.35;;
32812;SDS011;19162;48.254;11.454;2022-11-12T17:14:54;107.77;;;31.50;;
32812;SDS011;19162;48.254;11.454;2022-11-12T17:17:54;73.03;;;26.40;;
32812;SDS011;19162;48.254;11.454;2022-11-12T17:20:54;84.00;;;24.90;;
32812;SDS011;19162;48.254;11.454;2022-11-12T17:23:54;43.20;;;20.00;;
32812;SDS011;19162;48.254;11.454;2022-11-12T17:26:56;83.15;;;22.40;;
32812;SDS011;19162;48.254;11.454;2022-11-12T17:29:56;62.50;;;22.13;;
32812;SDS011;19162;48.254;11.454;2022-11-12T17:32:57;41.67;;;20.87;;
32812;SDS011;19162;48.254;11.454;2022-11-12T17:36:01;51.20;;;19.80;;
32812;SDS011;19162;48.254;11.454;2022-11-12T17:39:02;49.03;;;19.17;;
32812;SDS011;19162;48.254;11.454;2022-11-12T17:42:02;54.37;;;19.87;;
32812;SDS011;19162;48.254;11.454;2022-11-12T17:45:02;40.72;;;19.27;;
32812;SDS011;19162;48.254;11.454;2022-11-12T19:04:42;32.83;;;10.50;;
32812;SDS011;19162;48.254;11.454;2022-11-12T19:45:38;39.03;;;12.27;;
32812;SDS011;19162;48.254;11.454;2022-11-12T19:48:31;57.65;;;13.27;;
32812;SDS011;19162;48.254;11.454;2022-11-12T19:55:16;40.17;;;13.10;;
32812;SDS011;19162;48.254;11.454;2022-11-12T19:58:46;58.10;;;14.50;;
32812;SDS011;19162;48.254;11.454;2022-11-12T20:02:13;50.25;;;13.13;;
32812;SDS011;19162;48.254;11.454;2022-11-12T20:05:20;36.60;;;13.52;;
32812;SDS011;19162;48.254;11.454;2022-11-12T20:12:18;51.22;;;13.45;;
32812;SDS011;19162;48.254;11.454;2022-11-12T20:19:30;45.30;;;14.70;;
32812;SDS011;19162;48.254;11.454;2022-11-12T20:34:13;38.85;;;13.27;;
32812;SDS011;19162;48.254;11.454;2022-11-12T20:37:34;46.35;;;12.00;;
32812;SDS011;19162;48.254;11.454;2022-11-12T20:44:18;54.70;;;13.48;;
32812;SDS011;19162;48.254;11.454;2022-11-12T20:48:00;46.90;;;13.40;;
32812;SDS011;19162;48.254;11.454;2022-11-12T21:02:24;47.15;;;14.55;;
32812;SDS011;19162;48.254;11.454;2022-11-12T21:13:24;55.95;;;15.02;;
32812;SDS011;19162;48.254;11.454;2022-11-12T21:20:42;55.90;;;15.93;;
32812;SDS011;19162;48.254;11.454;2022-11-12T21:24:07;55.05;;;17.05;;
32812;SDS011;19162;48.254;11.454;2022-11-12T21:27:16;34.28;;;16.25;;
32812;SDS011;19162;48.254;11.454;2022-11-12T21:37:38;31.13;;;16.05;;
32812;SDS011;19162;48.254;11.454;2022-11-12T21:44:40;54.83;;;16.00;;
32812;SDS011;19162;48.254;11.454;2022-11-12T21:48:09;64.95;;;17.38;;
32812;SDS011;19162;48.254;11.454;2022-11-12T21:55:19;66.45;;;19.17;;
32812;SDS011;19162;48.254;11.454;2022-11-12T22:01:50;34.72;;;17.80;;
32812;SDS011;19162;48.254;11.454;2022-11-12T22:05:10;58.35;;;18.05;;
32812;SDS011;19162;48.254;11.454;2022-11-12T22:15:42;55.13;;;17.05;;
32812;SDS011;19162;48.254;11.454;2022-11-12T22:18:46;65.90;;;16.85;;
32812;SDS011;19162;48.254;11.454;2022-11-12T22:21:58;50.28;;;16.17;;
32812;SDS011;19162;48.254;11.454;2022-11-12T22:25:22;37.13;;;16.25;;
32812;SDS011;19162;48.254;11.454;2022-11-12T22:28:22;47.33;;;17.52;;
32812;SDS011;19162;48.254;11.454;2022-11-12T22:31:24;50.33;;;16.48;;
32812;SDS011;19162;48.254;11.454;2022-11-12T22:37:26;39.97;;;16.77;;
32812;SDS011;19162;48.254;11.454;2022-11-12T22:40:26;54.70;;;16.83;;
32812;SDS011;19162;48.254;11.454;2022-11-12T22:43:26;61.50;;;16.47;;
32812;SDS011;19162;48.254;11.454;2022-11-12T22:46:28;42.17;;;17.33;;
32812;SDS011;19162;48.254;11.454;2022-11-12T22:49:29;48.38;;;18.55;;
32812;SDS011;19162;48.254;11.454;2022-11-12T22:52:29;53.58;;;16.33;;
32812;SDS011;19162;48.254;11.454;2022-11-12T22:55:29;44.95;;;15.18;;
32812;SDS011;19162;48.254;11.454;2022-11-12T22:58:29;63.75;;;17.63;;
32812;SDS011;19162;48.254;11.454;2022-11-12T23:01:31;59.95;;;18.00;;
32812;SDS011;19162;48.254;11.454;2022-11-12T23:04:31;43.20;;;16.98;;
32812;SDS011;19162;48.254;11.454;2022-11-12T23:07:31;45.97;;;17.63;;
32812;SDS011;19162;48.254;11.454;2022-11-12T23:10:31;33.85;;;18.45;;
32812;SDS011;19162;48.254;11.454;2022-11-12T23:13:32;48.57;;;19.10;;
32812;SDS011;19162;48.254;11.454;2022-11-12T23:16:32;49.35;;;17.80;;
32812;SDS011;19162;48.254;11.454;2022-11-12T23:19:34;53.40;;;17.20;;
32812;SDS011;19162;48.254;11.454;2022-11-12T23:22:34;50.87;;;18.77;;
32812;SDS011;19162;48.254;11.454;2022-11-12T23:25:34;87.40;;;19.00;;
32812;SDS011;19162;48.254;11.454;2022-11-12T23:28:35;60.00;;;18.27;;
32812;SDS011;19162;48.254;11.454;2022-11-12T23:31:35;32.83;;;15.32;;
32812;SDS011;19162;48.254;11.454;2022-11-12T23:34:36;68.57;;;16.33;;
32812;SDS011;19162;48.254;11.454;2022-11-12T23:37:36;65.50;;;17.80;;